Time;durP1;ratioP1;P1;durP2;ratioP2;P2;SDS_P1;SDS_P2;PMS_P1;PMS_P2;Temp;Humidity;BMP_temperature;BMP_pressure;BME280_temperature;BME280_humidity;BME280_pressure;Samples;Min_cycle;Max_cycle;Signal;HPM_P1;HPM_P2
2023/12/29 00:00:56;;;;;;;67.80;29.85;;;1.90;99.90;;;;;;2585957;54;21103;31
2023/12/29 00:03:34;;;;;;;54.63;26.20;;;1.90;99.90;;;;;;2585936;54;20030;31
2023/12/29 00:06:10;;;;;;;54.10;23.20;;;1.90;99.90;;;;;;2585704;54;20888;31
2023/12/29 00:08:46;;;;;;;55.03;25.58;;;1.90;99.90;;;;;;2604173;46;20084;31
2023/12/29 00:11:25;;;;;;;49.10;22.60;;;2.00;99.90;;;;;;2604308;46;20038;31
2023/12/29 00:13:59;;;;;;;52.33;22.23;;;2.00;99.90;;;;;;2585659;54;20063;31
2023/12/29 00:16:40;;;;;;;39.88;19.88;;;2.00;99.90;;;;;;2585735;54;20053;31
2023/12/29 00:19:24;;;;;;;50.50;21.53;;;2.00;99.90;;;;;;2603952;46;20801;31
2023/12/29 00:22:06;;;;;;;36.22;17.38;;;2.00;99.90;;;;;;2585590;54;20974;31
2023/12/29 00:24:45;;;;;;;31.42;15.02;;;2.10;99.90;;;;;;2585458;54;20753;31
2023/12/29 00:27:23;;;;;;;27.77;14.20;;;2.10;99.90;;;;;;2585348;54;20892;31
2023/12/29 00:30:01;;;;;;;36.42;15.27;;;2.20;99.90;;;;;;2585465;54;20062;31
2023/12/29 00:32:44;;;;;;;31.10;16.20;;;2.20;99.90;;;;;;2591185;46;20137;31
2023/12/29 00:35:21;;;;;;;28.92;15.23;;;2.30;99.90;;;;;;2584688;54;20926;31
2023/12/29 00:38:00;;;;;;;31.90;15.60;;;2.40;99.90;;;;;;2585571;54;20940;31
2023/12/29 00:40:41;;;;;;;27.70;13.85;;;2.40;99.90;;;;;;2604368;46;20026;31
2023/12/29 00:45:55;;;;;;;38.70;18.10;;;2.50;99.90;;;;;;2585545;54;20882;31
2023/12/29 00:48:35;;;;;;;37.58;19.40;;;2.50;99.90;;;;;;2585817;54;20930;31
2023/12/29 00:51:16;;;;;;;36.40;16.70;;;2.50;99.90;;;;;;2585547;54;20033;31
2023/12/29 00:53:55;;;;;;;35.20;16.83;;;2.50;99.90;;;;;;2604087;46;20057;31
2023/12/29 00:56:39;;;;;;;34.50;17.50;;;2.40;99.90;;;;;;2603830;46;20917;31
2023/12/29 00:59:18;;;;;;;39.30;17.00;;;2.40;99.90;;;;;;2585318;54;20067;31
2023/12/29 01:01:54;;;;;;;33.95;15.32;;;2.40;99.90;;;;;;2585472;54;20753;31
2023/12/29 01:04:48;;;;;;;26.65;13.10;;;2.40;99.90;;;;;;2604221;46;22297;31
2023/12/29 01:07:25;;;;;;;28.10;13.40;;;2.40;99.90;;;;;;2585301;54;20031;31
2023/12/29 01:10:02;;;;;;;25.20;12.05;;;2.40;99.90;;;;;;2604212;46;20964;31
2023/12/29 01:12:39;;;;;;;22.30;11.25;;;2.40;99.90;;;;;;2585468;54;20911;31
2023/12/29 01:15:18;;;;;;;19.70;10.63;;;2.50;99.90;;;;;;2585727;54;20970;31
2023/12/29 01:17:56;;;;;;;17.77;10.50;;;2.50;99.90;;;;;;2584671;54;21057;31
2023/12/29 01:20:39;;;;;;;19.80;9.47;;;2.50;99.90;;;;;;2584467;54;20022;31
2023/12/29 01:23:15;;;;;;;15.23;8.65;;;2.60;99.90;;;;;;2584705;54;20883;31
2023/12/29 01:25:53;;;;;;;15.27;8.88;;;2.60;99.90;;;;;;2584496;54;20026;31
2023/12/29 01:28:31;;;;;;;12.15;6.95;;;2.70;99.90;;;;;;2584975;54;20112;31
2023/12/29 01:31:08;;;;;;;12.02;5.75;;;2.80;99.90;;;;;;2585251;54;20023;31
2023/12/29 01:33:45;;;;;;;11.40;6.20;;;2.80;99.90;;;;;;2585433;54;20927;31
2023/12/29 01:36:24;;;;;;;12.03;6.10;;;2.90;99.90;;;;;;2585652;54;21014;31
2023/12/29 01:39:02;;;;;;;11.05;6.20;;;3.00;99.90;;;;;;2585263;54;20116;31
2023/12/29 01:41:40;;;;;;;12.05;6.05;;;3.10;99.90;;;;;;2603625;46;20092;31
2023/12/29 01:44:23;;;;;;;10.75;5.97;;;3.10;99.90;;;;;;2637024;39;22204;31
2023/12/29 01:47:01;;;;;;;8.75;5.68;;;3.20;99.90;;;;;;2584946;54;20960;31
2023/12/29 01:49:37;;;;;;;8.80;5.30;;;3.20;99.90;;;;;;2604183;46;20053;31
2023/12/29 01:52:16;;;;;;;10.13;5.45;;;3.30;99.90;;;;;;2585046;54;20120;31
2023/12/29 01:54:54;;;;;;;9.97;5.77;;;3.40;99.90;;;;;;2585241;54;20745;31
2023/12/29 01:57:35;;;;;;;9.40;5.47;;;3.40;99.90;;;;;;2603838;46;20027;31
2023/12/29 02:00:16;;;;;;;8.07;4.90;;;3.50;99.90;;;;;;2585530;54;20961;31
2023/12/29 02:02:55;;;;;;;8.53;4.90;;;3.50;99.90;;;;;;2603975;46;20037;31
2023/12/29 02:05:29;;;;;;;10.00;4.95;;;3.60;99.90;;;;;;2585233;54;20031;31
2023/12/29 02:08:09;;;;;;;8.67;5.03;;;3.60;99.90;;;;;;2585319;54;20124;31
2023/12/29 02:10:46;;;;;;;10.63;4.78;;;3.60;99.90;;;;;;2584975;54;21098;31
2023/12/29 02:13:24;;;;;;;8.18;5.00;;;3.70;99.90;;;;;;2585291;54;20961;31
2023/12/29 02:16:01;;;;;;;8.20;4.85;;;3.70;99.90;;;;;;2585491;54;22162;31
2023/12/29 02:18:39;;;;;;;7.93;4.32;;;3.80;99.90;;;;;;2595825;46;20887;31
2023/12/29 02:21:15;;;;;;;9.63;4.47;;;3.80;99.90;;;;;;2585119;54;20909;31
2023/12/29 02:23:55;;;;;;;8.50;4.93;;;3.80;99.90;;;;;;2585489;54;20026;31
2023/12/29 02:26:33;;;;;;;6.72;3.63;;;3.80;99.90;;;;;;2603668;46;20032;31
2023/12/29 02:29:09;;;;;;;5.75;3.80;;;3.80;99.90;;;;;;2604187;46;20920;31
2023/12/29 02:31:45;;;;;;;6.93;3.85;;;3.80;99.90;;;;;;2603915;46;20026;31
2023/12/29 02:34:24;;;;;;;6.40;3.80;;;3.80;99.90;;;;;;2585433;54;20030;31
2023/12/29 02:36:59;;;;;;;8.60;4.00;;;3.90;99.90;;;;;;2603945;46;20065;31
2023/12/29 02:39:36;;;;;;;7.55;3.47;;;3.80;99.90;;;;;;2585404;54;20061;31
2023/12/29 02:42:18;;;;;;;5.80;3.40;;;3.80;99.90;;;;;;2584832;54;20868;31
2023/12/29 02:44:53;;;;;;;7.15;3.25;;;3.80;99.90;;;;;;2585415;54;20903;31
2023/12/29 02:47:29;;;;;;;6.60;3.20;;;3.90;99.90;;;;;;2585318;54;20027;31
2023/12/29 02:50:06;;;;;;;5.40;3.33;;;3.90;99.90;;;;;;2585324;54;20030;31
2023/12/29 02:52:39;;;;;;;7.75;3.47;;;4.00;99.90;;;;;;2603294;46;20795;31
2023/12/29 02:55:19;;;;;;;7.87;3.30;;;4.00;99.90;;;;;;2603757;46;20031;31
2023/12/29 02:58:00;;;;;;;4.97;3.50;;;4.00;99.90;;;;;;2629526;39;21169;31
2023/12/29 03:00:37;;;;;;;6.17;3.23;;;4.10;99.90;;;;;;2603668;46;20981;31
2023/12/29 03:03:13;;;;;;;5.35;3.03;;;4.10;99.90;;;;;;2585023;54;20842;31
2023/12/29 03:05:49;;;;;;;6.55;3.25;;;4.20;99.90;;;;;;2585176;54;20050;31
2023/12/29 03:08:28;;;;;;;5.55;2.90;;;4.20;99.90;;;;;;2603795;46;20026;31
2023/12/29 03:11:07;;;;;;;6.75;3.65;;;4.20;99.90;;;;;;2585212;54;20111;31
2023/12/29 03:13:48;;;;;;;5.18;2.92;;;4.20;99.90;;;;;;2683207;39;20943;31
2023/12/29 03:16:23;;;;;;;5.63;3.20;;;4.30;99.90;;;;;;2585484;54;22019;31
2023/12/29 03:19:01;;;;;;;6.80;3.50;;;4.30;99.90;;;;;;2585104;54;20072;31
2023/12/29 03:21:40;;;;;;;5.15;3.10;;;4.30;99.90;;;;;;2584113;54;25071;31
2023/12/29 03:24:18;;;;;;;5.38;3.50;;;4.30;99.90;;;;;;2604081;46;20937;31
2023/12/29 03:26:55;;;;;;;5.13;3.20;;;4.30;99.90;;;;;;2585035;54;20023;31
2023/12/29 03:29:35;;;;;;;6.37;3.80;;;4.30;99.90;;;;;;2585048;54;20776;31
2023/12/29 03:32:11;;;;;;;7.00;3.17;;;4.30;99.90;;;;;;2584968;54;21244;31
2023/12/29 03:34:46;;;;;;;5.97;3.40;;;4.30;99.90;;;;;;2603334;46;20089;31
2023/12/29 03:37:25;;;;;;;;;;;4.30;99.90;;;;;;2585383;54;20022;31
2023/12/29 03:40:03;;;;;;;5.83;2.70;;;4.30;99.90;;;;;;2584643;54;19935;31
2023/12/29 03:42:38;;;;;;;7.13;3.65;;;4.30;99.90;;;;;;2603240;47;20968;31
2023/12/29 03:45:16;;;;;;;5.67;3.53;;;4.30;99.90;;;;;;2584972;54;20974;31
2023/12/29 03:47:52;;;;;;;4.63;3.38;;;4.30;99.90;;;;;;2584931;54;20751;31
2023/12/29 03:50:28;;;;;;;5.68;3.22;;;4.30;99.90;;;;;;2603348;47;20760;31
2023/12/29 03:53:02;;;;;;;5.50;3.55;;;4.30;99.90;;;;;;2585221;54;20026;31
2023/12/29 03:55:37;;;;;;;7.20;3.50;;;4.30;99.90;;;;;;2701644;39;22278;31
2023/12/29 03:58:16;;;;;;;4.57;3.42;;;4.30;99.90;;;;;;2584747;54;19934;31
2023/12/29 04:00:56;;;;;;;5.57;3.00;;;4.30;99.90;;;;;;2585126;54;20814;31
2023/12/29 04:03:32;;;;;;;4.90;2.90;;;4.30;99.90;;;;;;2603314;47;20092;31
2023/12/29 04:06:07;;;;;;;6.25;3.80;;;4.30;99.90;;;;;;2603467;47;20927;31
2023/12/29 04:08:47;;;;;;;6.50;3.20;;;4.40;99.90;;;;;;2585209;54;20909;31
2023/12/29 04:11:23;;;;;;;6.40;3.70;;;4.40;99.90;;;;;;2585078;54;20996;31
2023/12/29 04:14:08;;;;;;;6.43;3.50;;;4.40;99.90;;;;;;2584487;54;20942;31
2023/12/29 04:16:46;;;;;;;5.25;3.35;;;4.40;99.90;;;;;;2585001;54;20817;31
2023/12/29 04:19:22;;;;;;;5.45;3.40;;;4.40;99.90;;;;;;2602959;47;20991;31
2023/12/29 04:21:58;;;;;;;5.80;2.97;;;4.40;99.90;;;;;;2584931;54;20954;31
2023/12/29 04:24:33;;;;;;;5.90;3.13;;;4.40;99.90;;;;;;2585261;54;22511;31
2023/12/29 04:27:10;;;;;;;4.80;2.75;;;4.50;99.90;;;;;;2603346;47;20081;31
2023/12/29 04:29:47;;;;;;;6.80;3.60;;;4.50;99.90;;;;;;2584774;54;20964;31
2023/12/29 04:32:24;;;;;;;6.00;3.17;;;4.50;99.90;;;;;;2584645;54;20030;31
2023/12/29 04:35:00;;;;;;;5.85;3.45;;;4.50;99.90;;;;;;2603567;47;20934;31
2023/12/29 04:37:38;;;;;;;8.05;3.65;;;4.50;99.90;;;;;;2603025;47;20971;31
2023/12/29 04:40:14;;;;;;;4.82;3.03;;;4.60;99.90;;;;;;2584791;54;20026;31
2023/12/29 04:42:52;;;;;;;4.65;2.83;;;4.60;99.90;;;;;;2584674;54;20085;31
2023/12/29 04:45:30;;;;;;;6.40;3.20;;;4.60;99.90;;;;;;2584688;54;20034;31
2023/12/29 04:48:10;;;;;;;5.35;2.90;;;4.70;99.90;;;;;;2584623;54;20895;31
2023/12/29 04:50:46;;;;;;;6.30;3.40;;;4.70;99.90;;;;;;2603964;46;20145;31
2023/12/29 04:53:21;;;;;;;5.53;2.97;;;4.80;99.90;;;;;;2585751;54;20243;31
2023/12/29 04:55:57;;;;;;;9.13;3.40;;;4.80;99.90;;;;;;2585454;54;21225;31
2023/12/29 04:58:32;;;;;;;6.80;3.53;;;4.80;99.90;;;;;;2585422;54;20907;31
2023/12/29 05:01:08;;;;;;;5.60;3.20;;;4.80;99.90;;;;;;2585629;54;20974;31
2023/12/29 05:03:46;;;;;;;5.97;3.33;;;4.90;99.90;;;;;;2585128;54;21050;31
2023/12/29 05:06:20;;;;;;;7.27;2.90;;;4.90;99.90;;;;;;2604472;46;20030;31
2023/12/29 05:08:54;;;;;;;6.57;2.95;;;4.80;99.90;;;;;;2585334;54;20916;31
2023/12/29 05:11:33;;;;;;;10.00;3.10;;;4.80;99.90;;;;;;2585117;54;20037;31
2023/12/29 05:14:08;;;;;;;6.75;3.08;;;4.80;99.90;;;;;;2603744;46;20072;31
2023/12/29 05:16:43;;;;;;;6.45;3.28;;;4.90;99.90;;;;;;2585280;54;20030;31
2023/12/29 05:19:22;;;;;;;6.77;2.20;;;4.90;99.90;;;;;;2585275;54;20112;31
2023/12/29 05:21:56;;;;;;;5.70;2.70;;;4.90;99.90;;;;;;2603806;46;21289;31
2023/12/29 05:24:33;;;;;;;5.50;2.90;;;4.90;99.90;;;;;;2585343;54;20773;31
2023/12/29 05:27:08;;;;;;;4.55;3.13;;;4.90;99.90;;;;;;2585536;54;20878;31
2023/12/29 05:29:44;;;;;;;3.90;2.90;;;4.90;99.90;;;;;;2585441;54;20048;31
2023/12/29 05:32:20;;;;;;;7.57;2.88;;;5.00;99.90;;;;;;2585345;54;20956;31
2023/12/29 05:34:59;;;;;;;5.40;3.30;;;5.00;99.90;;;;;;2604304;46;20045;31
2023/12/29 05:37:35;;;;;;;4.88;2.67;;;5.00;99.90;;;;;;2585527;54;20061;31
2023/12/29 05:40:12;;;;;;;;;;;5.00;99.90;;;;;;2585505;54;20980;31
2023/12/29 05:42:48;;;;;;;5.00;3.00;;;5.00;99.90;;;;;;2604268;46;19989;31
2023/12/29 05:45:24;;;;;;;6.67;3.40;;;5.00;99.90;;;;;;2585402;54;20055;31
2023/12/29 05:48:00;;;;;;;7.50;3.90;;;5.00;99.90;;;;;;2604225;46;20972;31
2023/12/29 05:50:38;;;;;;;;;;;5.00;99.90;;;;;;2585551;54;20903;31
2023/12/29 05:53:17;;;;;;;9.05;3.65;;;5.00;99.90;;;;;;2603286;46;19935;31
2023/12/29 05:55:53;;;;;;;5.97;3.78;;;5.00;99.90;;;;;;2603524;46;21026;31
2023/12/29 05:58:28;;;;;;;7.07;3.97;;;5.00;99.90;;;;;;2603997;46;20038;31
2023/12/29 06:01:06;;;;;;;8.53;3.80;;;5.00;99.90;;;;;;2585564;54;19941;31
2023/12/29 06:03:41;;;;;;;5.90;3.33;;;5.00;99.90;;;;;;2585468;54;19946;31
2023/12/29 06:06:19;;;;;;;5.90;3.60;;;5.00;99.90;;;;;;2585329;54;21145;31
2023/12/29 06:08:55;;;;;;;7.57;3.28;;;5.00;99.90;;;;;;2585166;54;20027;31
2023/12/29 06:11:30;;;;;;;6.23;3.00;;;5.00;99.90;;;;;;2603816;46;20026;31
2023/12/29 06:14:06;;;;;;;5.45;2.60;;;5.10;99.90;;;;;;2585353;54;20907;31
2023/12/29 06:16:42;;;;;;;6.50;2.80;;;5.10;99.90;;;;;;2603811;46;20030;31
2023/12/29 06:19:19;;;;;;;6.80;3.20;;;5.10;99.90;;;;;;2585476;54;20056;31
2023/12/29 06:21:57;;;;;;;5.93;3.30;;;5.10;99.90;;;;;;2603672;46;20060;31
2023/12/29 06:24:31;;;;;;;6.20;3.00;;;5.20;99.90;;;;;;2585460;54;20957;31
2023/12/29 06:27:10;;;;;;;4.25;3.35;;;5.20;99.90;;;;;;2585518;54;22418;31
2023/12/29 06:29:44;;;;;;;4.25;2.75;;;5.20;99.90;;;;;;2585427;54;21167;31
2023/12/29 06:32:20;;;;;;;6.80;3.50;;;5.20;99.90;;;;;;2603599;46;21205;31
2023/12/29 06:34:56;;;;;;;6.90;3.45;;;5.20;99.90;;;;;;2603863;46;20030;31
2023/12/29 06:37:34;;;;;;;5.15;3.10;;;5.20;99.90;;;;;;2603668;46;20033;31
2023/12/29 06:40:12;;;;;;;4.50;3.05;;;5.20;99.90;;;;;;2585302;54;20927;31
2023/12/29 06:42:48;;;;;;;6.80;3.60;;;5.20;99.90;;;;;;2585195;54;20031;31
2023/12/29 06:45:23;;;;;;;;;;;5.20;99.90;;;;;;2585477;54;20049;31
2023/12/29 06:47:58;;;;;;;5.80;3.43;;;5.20;99.90;;;;;;2585416;54;19940;31
2023/12/29 06:50:34;;;;;;;7.07;2.83;;;5.20;99.90;;;;;;2585069;54;20026;31
2023/12/29 06:53:14;;;;;;;6.33;4.30;;;5.20;99.90;;;;;;2585253;54;20022;31
2023/12/29 06:55:52;;;;;;;6.40;3.37;;;5.20;99.90;;;;;;2763513;31;21130;31
2023/12/29 06:58:26;;;;;;;5.97;3.67;;;5.30;99.90;;;;;;2603567;46;20904;31
2023/12/29 07:01:06;;;;;;;7.95;3.50;;;5.30;99.90;;;;;;2585055;54;20983;31
2023/12/29 07:03:42;;;;;;;9.30;4.07;;;5.30;99.90;;;;;;2603635;46;21022;31
2023/12/29 07:06:21;;;;;;;7.87;3.70;;;5.30;99.90;;;;;;2603638;46;20116;31
2023/12/29 07:09:00;;;;;;;10.10;4.28;;;5.30;99.90;;;;;;2593796;46;20786;31
2023/12/29 07:11:37;;;;;;;8.50;3.87;;;5.30;99.90;;;;;;2584303;54;20902;31
2023/12/29 07:14:12;;;;;;;6.90;3.55;;;5.40;99.90;;;;;;2584378;54;20916;31
2023/12/29 07:16:48;;;;;;;6.85;4.22;;;5.40;99.90;;;;;;2585137;54;20151;31
2023/12/29 07:19:24;;;;;;;9.60;4.63;;;5.40;99.90;;;;;;2585026;54;20790;31
2023/12/29 07:21:59;;;;;;;9.50;4.85;;;5.40;99.90;;;;;;2585144;54;20932;31
2023/12/29 07:24:41;;;;;;;5.90;3.60;;;5.50;99.90;;;;;;2584848;54;25105;31
2023/12/29 07:27:16;;;;;;;6.38;2.97;;;5.50;99.90;;;;;;2603371;46;20813;31
2023/12/29 07:29:52;;;;;;;6.63;3.35;;;5.60;99.90;;;;;;2585197;54;20037;31
2023/12/29 07:32:28;;;;;;;;;;;5.60;99.90;;;;;;2584324;54;20107;31
2023/12/29 07:35:05;;;;;;;6.55;3.92;;;5.60;99.90;;;;;;2584913;54;19934;31
2023/12/29 07:37:44;;;;;;;8.18;3.72;;;5.70;99.90;;;;;;2584941;54;20022;31
2023/12/29 07:40:19;;;;;;;7.37;3.67;;;5.80;99.90;;;;;;2584856;54;20022;31
2023/12/29 07:42:56;;;;;;;6.80;3.30;;;5.80;99.90;;;;;;2584759;54;20973;31
2023/12/29 07:45:32;;;;;;;6.72;3.45;;;5.80;99.90;;;;;;2584972;54;20042;31
2023/12/29 07:48:10;;;;;;;9.80;2.80;;;5.90;99.90;;;;;;2603802;47;21947;31
2023/12/29 07:50:45;;;;;;;4.40;2.53;;;5.90;99.90;;;;;;2585045;54;21012;31
2023/12/29 07:53:20;;;;;;;6.10;2.67;;;6.00;99.90;;;;;;2584823;54;20896;31
2023/12/29 07:55:55;;;;;;;7.93;3.03;;;6.00;99.90;;;;;;2701231;39;21111;31
2023/12/29 07:58:36;;;;;;;6.30;2.75;;;6.00;99.90;;;;;;2603362;47;20883;31
2023/12/29 08:01:11;;;;;;;5.15;2.78;;;6.10;99.90;;;;;;2584693;54;20958;31
2023/12/29 08:03:47;;;;;;;4.30;2.67;;;6.20;99.90;;;;;;2584777;54;20975;31
2023/12/29 08:06:23;;;;;;;7.07;3.17;;;6.20;99.90;;;;;;2603514;47;20948;31
2023/12/29 08:08:58;;;;;;;5.55;2.70;;;6.30;99.90;;;;;;2585024;54;20030;31
2023/12/29 08:11:35;;;;;;;4.88;2.63;;;6.30;99.90;;;;;;2584883;54;20034;31
2023/12/29 08:14:14;;;;;;;5.10;3.10;;;6.40;99.90;;;;;;2603623;47;20040;31
2023/12/29 08:16:53;;;;;;;4.57;2.93;;;6.50;99.90;;;;;;2603353;47;20955;31
2023/12/29 08:19:29;;;;;;;4.40;2.10;;;6.60;99.90;;;;;;2585388;54;20030;31
2023/12/29 08:22:05;;;;;;;3.80;1.95;;;6.60;99.90;;;;;;2701619;39;21121;31
2023/12/29 08:24:44;;;;;;;5.20;2.25;;;6.70;99.90;;;;;;2585690;54;19934;31
2023/12/29 08:27:27;;;;;;;7.53;2.55;;;6.80;99.90;;;;;;2585625;54;20080;31
2023/12/29 08:30:06;;;;;;;5.97;3.10;;;6.90;99.90;;;;;;2585811;54;20031;31
2023/12/29 08:32:41;;;;;;;4.63;2.50;;;7.00;99.90;;;;;;2585444;54;20986;31
2023/12/29 08:35:15;;;;;;;3.90;2.50;;;7.20;99.90;;;;;;2683755;39;22452;31
2023/12/29 08:37:49;;;;;;;5.88;2.40;;;7.30;99.90;;;;;;2603990;46;20054;31
2023/12/29 08:40:26;;;;;;;8.20;2.90;;;7.50;99.90;;;;;;2604206;46;20030;31
2023/12/29 08:43:02;;;;;;;4.20;2.10;;;7.70;99.90;;;;;;2585562;54;20946;31
2023/12/29 08:45:41;;;;;;;4.88;2.80;;;7.90;99.90;;;;;;2585561;54;20750;31
2023/12/29 08:48:16;;;;;;;5.60;2.30;;;8.10;99.90;;;;;;2683409;39;21623;31
2023/12/29 08:50:50;;;;;;;5.83;2.80;;;8.20;99.90;;;;;;2603902;46;20033;31
2023/12/29 08:53:37;;;;;;;4.82;2.70;;;8.40;99.90;;;;;;2585664;54;20908;31
2023/12/29 08:56:15;;;;;;;5.75;2.70;;;8.70;99.90;;;;;;2585467;54;20906;31
2023/12/29 08:58:53;;;;;;;3.67;2.10;;;8.80;99.90;;;;;;2585262;54;20030;31
2023/12/29 09:01:34;;;;;;;3.65;2.00;;;9.00;99.90;;;;;;2585369;54;20920;31
2023/12/29 09:04:09;;;;;;;3.75;2.17;;;9.30;99.90;;;;;;2603835;46;20026;31
2023/12/29 09:06:45;;;;;;;4.65;1.85;;;9.50;97.60;;;;;;2585431;54;20966;31
2023/12/29 09:09:20;;;;;;;2.67;1.60;;;9.60;96.70;;;;;;2585483;54;20058;31
2023/12/29 09:11:58;;;;;;;4.25;1.75;;;9.80;97.90;;;;;;2585298;54;20033;31
2023/12/29 09:14:34;;;;;;;3.92;1.60;;;10.10;99.50;;;;;;2585163;54;20956;31
2023/12/29 09:17:13;;;;;;;3.03;2.03;;;10.30;90.50;;;;;;2584942;54;20026;31
2023/12/29 09:19:51;;;;;;;4.15;1.55;;;10.40;82.40;;;;;;2604058;46;20895;31
2023/12/29 09:22:39;;;;;;;4.63;1.70;;;10.60;90.70;;;;;;2604043;46;20128;31
2023/12/29 09:25:14;;;;;;;4.03;1.45;;;10.60;84.00;;;;;;2585303;54;20760;31
2023/12/29 09:27:52;;;;;;;3.03;1.63;;;10.70;79.00;;;;;;2585219;54;20030;31
2023/12/29 09:30:26;;;;;;;2.73;1.30;;;10.80;75.50;;;;;;2603740;46;21162;31
2023/12/29 09:33:03;;;;;;;3.00;1.50;;;11.00;75.50;;;;;;2585313;54;20856;31
2023/12/29 09:35:38;;;;;;;2.65;1.98;;;11.20;73.60;;;;;;2603739;46;20911;31
2023/12/29 09:38:12;;;;;;;1.92;0.82;;;11.40;65.40;;;;;;2585654;54;21909;31
2023/12/29 09:40:46;;;;;;;1.95;1.00;;;11.50;58.80;;;;;;2585276;54;20026;31
2023/12/29 09:43:24;;;;;;;2.70;1.33;;;11.60;52.10;;;;;;2604059;46;21936;31
2023/12/29 09:45:59;;;;;;;3.30;1.13;;;11.80;56.10;;;;;;2584861;54;20866;31
2023/12/29 09:48:40;;;;;;;2.72;1.30;;;11.90;50.30;;;;;;2603851;46;20022;31
2023/12/29 09:51:15;;;;;;;1.67;0.73;;;12.00;49.90;;;;;;2585006;54;20856;31
2023/12/29 09:53:52;;;;;;;1.63;1.10;;;12.10;44.60;;;;;;2585505;54;20870;31
2023/12/29 09:56:32;;;;;;;2.55;0.98;;;12.20;49.40;;;;;;2584400;54;21037;31
2023/12/29 09:59:07;;;;;;;3.15;1.13;;;12.30;47.60;;;;;;2584411;54;20874;31
2023/12/29 10:01:43;;;;;;;9.13;1.47;;;12.40;41.30;;;;;;2599551;46;20980;31
2023/12/29 10:04:25;;;;;;;1.90;1.00;;;12.70;49.40;;;;;;2585531;54;20929;31
2023/12/29 10:07:03;;;;;;;1.20;0.70;;;12.90;37.00;;;;;;2585372;54;20068;31
2023/12/29 10:09:41;;;;;;;2.20;0.97;;;13.00;30.40;;;;;;2585566;54;20919;31
2023/12/29 10:12:18;;;;;;;2.20;0.95;;;13.00;32.90;;;;;;2585410;54;19935;31
2023/12/29 10:14:58;;;;;;;1.95;1.13;;;13.10;30.00;;;;;;2585702;54;20035;31
2023/12/29 10:17:41;;;;;;;2.03;0.73;;;13.20;30.60;;;;;;2585354;54;20069;31
2023/12/29 10:20:25;;;;;;;5.00;3.25;;;13.20;29.50;;;;;;2603993;46;21005;31
2023/12/29 10:23:08;;;;;;;1.60;0.70;;;13.20;26.00;;;;;;2604256;46;20037;31
2023/12/29 10:25:44;;;;;;;1.38;0.70;;;13.10;27.10;;;;;;2585742;54;20038;31
2023/12/29 10:28:21;;;;;;;4.30;1.00;;;13.00;29.60;;;;;;2585798;54;20030;31
2023/12/29 10:30:58;;;;;;;1.70;0.70;;;12.90;26.50;;;;;;2585505;54;20968;31
2023/12/29 10:33:33;;;;;;;2.03;0.85;;;12.90;31.90;;;;;;2585625;54;20823;31
2023/12/29 10:36:14;;;;;;;1.30;0.70;;;12.90;35.10;;;;;;2603583;46;20037;31
2023/12/29 10:38:51;;;;;;;2.00;0.80;;;12.80;36.30;;;;;;2585601;54;20742;31
2023/12/29 10:41:27;;;;;;;3.20;0.80;;;12.80;32.90;;;;;;2585119;54;20277;31
2023/12/29 10:44:03;;;;;;;1.77;0.90;;;12.70;31.00;;;;;;2585318;54;20062;31
2023/12/29 10:46:37;;;;;;;;;;;12.60;35.80;;;;;;2603335;46;20034;31
2023/12/29 10:49:13;;;;;;;2.42;1.05;;;12.60;54.40;;;;;;2604016;46;21048;31
2023/12/29 10:51:58;;;;;;;1.25;0.70;;;12.70;40.30;;;;;;2585590;54;20026;31
2023/12/29 10:54:38;;;;;;;1.58;0.75;;;12.80;39.80;;;;;;2585519;54;20029;31
2023/12/29 10:57:14;;;;;;;3.35;1.20;;;12.80;33.50;;;;;;2585184;54;20948;31
2023/12/29 10:59:57;;;;;;;2.42;1.13;;;12.90;29.20;;;;;;2585567;54;20030;31
2023/12/29 11:02:36;;;;;;;1.67;0.70;;;12.70;29.30;;;;;;2603618;46;20027;31
2023/12/29 11:05:14;;;;;;;2.13;1.13;;;12.70;33.30;;;;;;2584643;54;20998;31
2023/12/29 11:07:54;;;;;;;2.75;0.80;;;12.50;34.20;;;;;;2585264;54;20786;31
2023/12/29 11:10:31;;;;;;;2.55;1.15;;;12.40;35.70;;;;;;2584560;54;20801;31
2023/12/29 11:13:10;;;;;;;3.20;0.68;;;12.40;36.80;;;;;;2585063;54;20653;31
2023/12/29 11:15:46;;;;;;;2.27;0.90;;;12.30;39.20;;;;;;2603312;46;20024;31
2023/12/29 11:18:24;;;;;;;1.60;0.70;;;12.20;38.20;;;;;;2584616;54;20060;31
2023/12/29 11:21:03;;;;;;;2.70;1.10;;;12.20;39.30;;;;;;2584395;54;20045;31
2023/12/29 11:23:48;;;;;;;1.70;0.90;;;12.10;38.90;;;;;;2585497;54;20881;31
2023/12/29 11:26:25;;;;;;;1.30;0.70;;;12.00;38.30;;;;;;2603478;46;20802;31
2023/12/29 11:29:04;;;;;;;2.80;0.90;;;12.00;39.20;;;;;;2585383;54;20230;31
2023/12/29 11:31:39;;;;;;;1.30;0.70;;;12.00;43.40;;;;;;2585230;54;20063;31
2023/12/29 11:34:17;;;;;;;1.75;0.63;;;12.00;45.10;;;;;;2603154;46;20923;31
2023/12/29 11:36:52;;;;;;;2.05;0.90;;;12.00;38.00;;;;;;2584984;54;20923;31
2023/12/29 11:39:38;;;;;;;2.75;0.90;;;12.00;43.50;;;;;;2603631;46;20027;31
2023/12/29 11:42:17;;;;;;;4.50;1.05;;;12.00;44.00;;;;;;2603688;46;20022;31
2023/12/29 11:44:53;;;;;;;1.65;0.85;;;12.00;43.20;;;;;;2585176;54;20052;31
2023/12/29 11:47:42;;;;;;;1.80;0.70;;;12.00;42.10;;;;;;2603202;47;20049;31
2023/12/29 11:50:21;;;;;;;2.45;0.80;;;12.00;41.20;;;;;;2585108;54;20093;31
2023/12/29 11:52:55;;;;;;;1.63;0.77;;;12.00;43.20;;;;;;2585162;54;20022;31
2023/12/29 11:55:38;;;;;;;2.45;1.15;;;12.00;44.00;;;;;;2684197;39;21227;31
2023/12/29 11:58:28;;;;;;;1.98;0.90;;;12.00;44.70;;;;;;2585716;54;20058;31
2023/12/29 12:01:03;;;;;;;1.83;0.82;;;12.00;43.30;;;;;;2604197;46;20898;31
2023/12/29 12:03:40;;;;;;;5.20;1.00;;;11.90;42.20;;;;;;2585813;54;20762;31
2023/12/29 12:06:13;;;;;;;;;;;11.90;44.20;;;;;;2586354;54;21912;31
2023/12/29 12:08:50;;;;;;;4.55;1.27;;;12.00;49.60;;;;;;2585595;54;19935;31
2023/12/29 12:11:50;;;;;;;2.75;1.50;;;11.90;45.90;;;;;;2604380;46;20031;31
2023/12/29 12:14:55;;;;;;;1.30;0.70;;;11.90;44.00;;;;;;2586018;54;20053;31
2023/12/29 12:17:33;;;;;;;1.13;0.60;;;11.90;31.90;;;;;;2603951;46;20112;31
2023/12/29 12:20:11;;;;;;;2.08;0.90;;;11.90;33.90;;;;;;2585646;54;20038;31
2023/12/29 12:22:46;;;;;;;2.53;0.95;;;11.90;38.80;;;;;;2585596;54;20031;31
2023/12/29 12:25:22;;;;;;;2.25;0.77;;;11.90;35.80;;;;;;2586006;54;20026;31
2023/12/29 12:28:02;;;;;;;1.63;0.77;;;11.90;33.90;;;;;;2585769;54;20853;31
2023/12/29 12:30:37;;;;;;;3.08;0.95;;;11.90;37.10;;;;;;2604183;46;20918;31
2023/12/29 12:33:13;;;;;;;;;;;11.80;35.20;;;;;;2585562;54;20085;31
2023/12/29 12:35:50;;;;;;;4.30;0.70;;;11.80;29.10;;;;;;2585720;54;19934;31
2023/12/29 12:38:27;;;;;;;;;;;11.80;30.90;;;;;;2586354;54;22473;31
2023/12/29 12:41:15;;;;;;;2.15;0.75;;;11.80;32.30;;;;;;2585643;54;19986;31
2023/12/29 12:44:09;;;;;;;1.92;0.55;;;11.80;29.70;;;;;;2585607;54;20906;31
2023/12/29 12:46:48;;;;;;;3.40;1.00;;;11.70;29.70;;;;;;2585759;54;20784;31
2023/12/29 12:49:24;;;;;;;1.50;0.70;;;11.80;30.10;;;;;;2585644;54;21091;31
2023/12/29 12:52:02;;;;;;;1.58;0.73;;;11.80;31.50;;;;;;2585675;54;20730;31
2023/12/29 12:54:42;;;;;;;2.40;0.80;;;11.80;29.70;;;;;;2585609;54;20905;31
2023/12/29 12:57:22;;;;;;;2.10;0.70;;;11.80;30.40;;;;;;2584842;54;20030;31
2023/12/29 13:00:00;;;;;;;2.30;0.90;;;11.70;28.70;;;;;;2584664;54;20041;31
2023/12/29 13:08:43;;;;;;;1.65;0.50;;;11.70;27.60;;;;;;2584811;54;20053;31
2023/12/29 13:11:25;;;;;;;1.73;0.60;;;11.70;24.60;;;;;;2585431;54;20042;31
2023/12/29 13:14:04;;;;;;;2.05;0.50;;;11.70;25.70;;;;;;2604313;46;20030;31
2023/12/29 13:16:43;;;;;;;1.50;0.70;;;11.70;24.90;;;;;;2585400;54;20026;31
2023/12/29 13:19:24;;;;;;;2.60;0.90;;;11.70;26.40;;;;;;2604171;46;20047;31
2023/12/29 13:22:01;;;;;;;3.45;1.30;;;11.70;26.10;;;;;;2585293;54;20785;31
2023/12/29 13:24:37;;;;;;;;;;;11.70;28.60;;;;;;2585808;54;20027;31
2023/12/29 13:30:03;;;;;;;2.80;0.75;;;11.60;24.80;;;;;;2585364;46;21054;31
2023/12/29 13:35:50;;;;;;;3.65;1.23;;;11.60;36.90;;;;;;2605367;54;20030;31
2023/12/29 13:38:39;;;;;;;2.55;1.13;;;11.50;42.20;;;;;;2603493;46;20061;31
2023/12/29 13:41:15;;;;;;;3.90;0.95;;;11.50;49.00;;;;;;2585451;54;20023;31
2023/12/29 13:43:52;;;;;;;2.63;1.27;;;11.40;52.70;;;;;;2585291;54;20907;31
2023/12/29 13:46:29;;;;;;;5.80;1.47;;;11.50;43.10;;;;;;2603855;46;20030;31
2023/12/29 13:49:06;;;;;;;1.88;1.10;;;11.50;41.50;;;;;;2603900;46;20917;31
2023/12/29 13:51:48;;;;;;;2.40;1.30;;;11.40;42.10;;;;;;2585477;54;20033;31
2023/12/29 13:54:24;;;;;;;3.95;1.50;;;11.30;42.40;;;;;;2603815;46;21194;31
2023/12/29 13:59:49;;;;;;;3.20;1.50;;;11.20;45.20;;;;;;2604194;46;20931;31
2023/12/29 14:02:30;;;;;;;4.57;1.70;;;11.10;45.10;;;;;;2585399;54;20239;31
2023/12/29 14:05:26;;;;;;;43.70;5.85;;;11.00;47.50;;;;;;2603528;46;20925;31
2023/12/29 14:08:14;;;;;;;73.23;11.77;;;10.90;49.20;;;;;;2584861;54;20044;31
2023/12/29 14:10:51;;;;;;;128.43;20.63;;;10.90;49.80;;;;;;2585319;54;20820;31
2023/12/29 14:13:26;;;;;;;11.90;3.40;;;10.80;51.90;;;;;;2585532;54;19957;31
2023/12/29 14:16:02;;;;;;;5.10;2.10;;;10.80;51.60;;;;;;2584679;54;20840;31
2023/12/29 14:18:42;;;;;;;;;;;10.70;51.10;;;;;;2585366;54;20026;31